首页
METAR-TAF:

METAR-TAF

机场 :

Cerklje ob Krki, 斯洛文尼亚

纬度: 45-53-59N, 经度: 15-30-55E, 海拔: 157米

当前天气观测

该预报发布于20分钟前的03:00 UTC
风速1节,风向多变
温度 14°C
湿度 94%
气压 997 hPa
能见度10公里或以上
小雨

METAR: LJCE 050300Z AUTO VRB01KT 9999 -RA NSC 14/13 Q0997 RERA

时间: 05:20 (03:20 UTC)

预报

该预报发布于1小时和20分钟前的02:00 UTC
预报有效从05日的 03点(UTC)到 05日的 12点(UTC)
风速8节,风向西南
能见度10公里或以上
多云层高于4000英尺
短暂存在
从 05日的 03点(UTC)到 05日的 09点(UTC)
能見度: 5000
多云层高于3500英尺, 积雨云.
阴天层高于5000英尺
雷暴, 雨
成为
从 05日的 08点(UTC)到 05日的 11点(UTC)
几率 40% :
短暂存在
从 05日的 09点(UTC)到 05日的 12点(UTC)
多云层高于2500英尺, 塔状积云.
阵雨

TAF: LJCE 050200Z 0503/0512 23008KT 9999 RA BKN040 TEMPO 0503/0509 5000 TSRA BKN035CB OVC050 BECMG 0508/0511 NSW PROB40 TEMPO 0509/0512 SHRA BKN025TCU

超过4000个机场的气象观测和天气预报(METAR&TAF报告)。

可查询的气象台以黄色和红色小点在地图上表示。

将鼠标移到小点上方,可查看气象台名称。

然后点击查看天气观测和预报。

如需切换地图:点击带黑十字的绿色按钮放大地图;点击带横线的绿色按钮缩小地图;或者点击绿色箭头查看邻近地区的地图。


METAR-TAF: